| time (UTC) | temp F | wind direction | speed knots | gust knots | rain 1hr in | rain 24hr in | rain mn in | humidity % | barometer mb |
| 20260503184607 | 60 | 17 | 0.0 | 7.8 | 0.00 | 0.00 | 0.00 | 44 | 1000.1 |
| 20260503183057 | 60 | 179 | 2.6 | 8.7 | 0.00 | 0.00 | 0.00 | 43 | 1000.6 |
| 20260503181601 | 60 | 137 | 0.9 | 6.1 | 0.00 | 0.00 | 0.00 | 39 | 1000.6 |
| 20260503180056 | 61 | 121 | 0.9 | 7.8 | 0.00 | 0.00 | 0.00 | 39 | 1000.8 |
| 20260503174607 | 60 | 161 | 1.7 | 5.2 | 0.00 | 0.00 | 0.00 | 45 | 1000.8 |
| 20260503173050 | 59 | 304 | 2.6 | 5.2 | 0.00 | 0.00 | 0.00 | 42 | 1001.1 |
| 20260503171548 | 58 | 263 | 5.2 | 10.4 | 0.00 | 0.00 | 0.00 | 40 | 1001.3 |
| 20260503090116 | 38 | 337 | 0.0 | 0.0 | 0.00 | 0.00 | 0.00 | 84 | 999.8 |
| 20260503081539 | 39 | 336 | 0.0 | 0.9 | 0.00 | 0.00 | 0.00 | 82 | 999.4 |
| 20260503071530 | 42 | 336 | 0.0 | 0.9 | 0.00 | 0.00 | 0.00 | 79 | 998.8 |
| 20260503054525 | 41 | 336 | 0.0 | 0.9 | 0.00 | 0.00 | 0.00 | 81 | 998.6 |
| 20260503053008 | 41 | 336 | 0.9 | 2.6 | 0.00 | 0.00 | 0.00 | 80 | 998.5 |
| 20260503051505 | 42 | 316 | 0.0 | 1.7 | 0.00 | 0.00 | 0.00 | 81 | 998.5 |
| 20260503050005 | 42 | 316 | 0.0 | 1.7 | 0.00 | 0.00 | 0.00 | 81 | 998.3 |
| 20260503044503 | 42 | 316 | 0.0 | 1.7 | 0.00 | 0.00 | 0.00 | 80 | 998.2 |
| 20260503043112 | 42 | 316 | 0.0 | 0.9 | 0.00 | 0.00 | 0.00 | 81 | 998.0 |
| 20260503041558 | 42 | 316 | 0.0 | 0.9 | 0.00 | 0.00 | 0.00 | 79 | 998.0 |
| 20260503040100 | 42 | 316 | 0.0 | 0.9 | 0.00 | 0.00 | 0.00 | 79 | 997.9 |
| 20260503034609 | 42 | 316 | 0.0 | 1.7 | 0.00 | 0.00 | 0.00 | 78 | 997.9 |
| 20260503033057 | 42 | 316 | 0.0 | 1.7 | 0.00 | 0.00 | 0.00 | 76 | 997.8 |
| 20260503031554 | 43 | 316 | 0.0 | 1.7 | 0.00 | 0.00 | 0.00 | 75 | 997.9 |
| 20260503030048 | 44 | 316 | 0.0 | 1.7 | 0.00 | 0.00 | 0.00 | 73 | 997.7 |
| 20260503024549 | 44 | 316 | 0.0 | 2.6 | 0.00 | 0.00 | 0.00 | 71 | 997.5 |
| 20260503023043 | 45 | 316 | 0.0 | 1.7 | 0.00 | 0.00 | 0.00 | 69 | 997.3 |
| 20260503021538 | 47 | 316 | 0.0 | 0.0 | 0.00 | 0.00 | 0.00 | 66 | 997.2 |
| 20260503020036 | 48 | 316 | 0.0 | 0.9 | 0.00 | 0.00 | 0.00 | 62 | 997.1 |
| 20260503014540 | 50 | 316 | 0.0 | 0.0 | 0.00 | 0.00 | 0.00 | 58 | 996.9 |
| 20260503013034 | 50 | 316 | 0.0 | 1.7 | 0.00 | 0.00 | 0.00 | 57 | 996.6 |
| 20260503011532 | 51 | 313 | 0.0 | 1.7 | 0.00 | 0.00 | 0.00 | 56 | 996.5 |
| 20260503010035 | 51 | 305 | 0.0 | 1.7 | 0.00 | 0.00 | 0.00 | 54 | 996.3 |
| 20260503004532 | 52 | 309 | 0.0 | 2.6 | 0.00 | 0.00 | 0.00 | 53 | 996.2 |
| 20260503003046 | 53 | 346 | 0.0 | 4.3 | 0.00 | 0.00 | 0.00 | 52 | 996.0 |
| 20260503001548 | 53 | 294 | 0.9 | 4.3 | 0.00 | 0.00 | 0.00 | 51 | 996.0 |
| 20260503000032 | 54 | 283 | 1.7 | 5.2 | 0.00 | 0.00 | 0.00 | 49 | 995.7 |
| 20260502234534 | 54 | 273 | 3.5 | 7.0 | 0.00 | 0.00 | 0.00 | 48 | 995.6 |
| 20260502233031 | 55 | 288 | 3.5 | 6.1 | 0.00 | 0.00 | 0.00 | 48 | 995.5 |
| 20260502231528 | 56 | 40 | 1.7 | 4.3 | 0.00 | 0.00 | 0.00 | 49 | 995.3 |
| 20260502230033 | 57 | 338 | 2.6 | 7.0 | 0.00 | 0.00 | 0.00 | 47 | 995.2 |
| 20260502224527 | 56 | 275 | 2.6 | 7.8 | 0.00 | 0.00 | 0.00 | 45 | 995.2 |
| 20260502223029 | 57 | 298 | 3.5 | 9.6 | 0.00 | 0.00 | 0.00 | 45 | 995.2 |
| 20260502221527 | 58 | 278 | 5.2 | 13.0 | 0.00 | 0.00 | 0.00 | 43 | 995.0 |
| 20260502220033 | 57 | 336 | 4.3 | 11.3 | 0.00 | 0.00 | 0.00 | 46 | 994.8 |
| 20260502214525 | 57 | 287 | 1.7 | 8.7 | 0.00 | 0.00 | 0.00 | 45 | 994.6 |
| 20260502213025 | 57 | 355 | 1.7 | 7.0 | 0.00 | 0.00 | 0.00 | 47 | 994.5 |
| 20260502211524 | 57 | 57 | 2.6 | 5.2 | 0.00 | 0.00 | 0.00 | 45 | 994.4 |
| 20260502210024 | 57 | 262 | 4.3 | 7.0 | 0.00 | 0.00 | 0.00 | 44 | 994.4 |
| 20260502204524 | 57 | 297 | 3.5 | 7.8 | 0.00 | 0.00 | 0.00 | 42 | 994.2 |
| 20260502203026 | 58 | 323 | 3.5 | 9.6 | 0.00 | 0.00 | 0.00 | 44 | 994.3 |
| 20260502201526 | 59 | 331 | 4.3 | 7.8 | 0.00 | 0.00 | 0.00 | 43 | 994.2 |
| 20260502200023 | 58 | 249 | 4.3 | 9.6 | 0.00 | 0.00 | 0.00 | 41 | 994.1 |
| 20260502194527 | 59 | 277 | 3.5 | 7.8 | 0.00 | 0.00 | 0.00 | 41 | 994.2 |
| 20260502193021 | 60 | 309 | 3.5 | 13.0 | 0.00 | 0.00 | 0.00 | 43 | 994.2 |
| 20260502191519 | 59 | 271 | 3.5 | 8.7 | 0.00 | 0.00 | 0.00 | 44 | 994.4 |
| 20260502190018 | 60 | 288 | 2.6 | 7.8 | 0.00 | 0.00 | 0.00 | 41 | 994.4 |